Time;durP1;ratioP1;P1;durP2;ratioP2;P2;SDS_P1;SDS_P2;PMS_P1;PMS_P2;Temp;Humidity;BMP_temperature;BMP_pressure;BME280_temperature;BME280_humidity;BME280_pressure;Samples;Min_cycle;Max_cycle;Signal;HPM_P1;HPM_P2
2022/02/09 00:01:12;;;;;;;2.5;1.8;;;;;;;-0.59;62.50684;96538.62;;;;
2022/02/09 00:02:34;;;;;;;2.5;1.8;;;;;;;-0.59;62.50684;96538.62;;;;
2022/02/09 00:03:40;;;;;;;2.5;1.8;;;;;;;-0.59;62.50684;96538.62;;;;
2022/02/09 00:04:45;;;;;;;2.5;1.8;;;;;;;-0.59;62.50684;96538.62;;;;
2022/02/09 00:05:56;;;;;;;2.5;1.8;;;;;;;-0.59;62.50684;96538.62;;;;
2022/02/09 00:07:05;;;;;;;2.5;1.8;;;;;;;-0.59;62.50684;96538.62;;;;
2022/02/09 00:08:08;;;;;;;2.5;1.8;;;;;;;-0.59;62.50684;96538.62;;;;
2022/02/09 00:09:09;;;;;;;2.5;1.8;;;;;;;-0.59;62.50684;96538.62;;;;
2022/02/09 00:10:09;;;;;;;2.5;1.8;;;;;;;-0.59;62.50684;96538.62;;;;
2022/02/09 00:11:15;;;;;;;2.5;1.8;;;;;;;-0.59;62.50684;96538.62;;;;
2022/02/09 00:12:20;;;;;;;2.8;1.75;;;;;;;-0.67;62.67383;96545.53;;;;
2022/02/09 00:13:48;;;;;;;2.8;1.75;;;;;;;-0.67;62.67383;96545.53;;;;
2022/02/09 00:15:00;;;;;;;2.8;1.75;;;;;;;-0.67;62.67383;96545.53;;;;
2022/02/09 00:16:09;;;;;;;2.8;1.75;;;;;;;-0.67;62.67383;96545.53;;;;
2022/02/09 00:17:28;;;;;;;2.8;1.75;;;;;;;-0.67;62.67383;96545.53;;;;
2022/02/09 00:18:36;;;;;;;2.8;1.75;;;;;;;-0.67;62.67383;96545.53;;;;
2022/02/09 00:19:50;;;;;;;2.8;1.75;;;;;;;-0.67;62.67383;96545.53;;;;
2022/02/09 00:22:11;;;;;;;2.8;1.75;;;;;;;-0.67;62.67383;96545.53;;;;
2022/02/09 00:23:45;;;;;;;2.8;1.8;;;;;;;-0.83;62.96484;96545.19;;;;
2022/02/09 00:25:03;;;;;;;2.8;1.8;;;;;;;-0.83;62.96484;96545.19;;;;
2022/02/09 00:26:41;;;;;;;2.8;1.8;;;;;;;-0.83;62.96484;96545.19;;;;
2022/02/09 00:28:15;;;;;;;2.8;1.8;;;;;;;-0.83;62.96484;96545.19;;;;
2022/02/09 00:34:44;;;;;;;2.8;1.9;;;;;;;-0.95;63.29004;96545.43;;;;
2022/02/09 00:36:11;;;;;;;2.8;1.9;;;;;;;-0.95;63.29004;96545.43;;;;
2022/02/09 00:37:43;;;;;;;2.8;1.9;;;;;;;-0.95;63.29004;96545.43;;;;
2022/02/09 00:39:04;;;;;;;2.8;1.9;;;;;;;-0.95;63.29004;96545.43;;;;
2022/02/09 00:40:31;;;;;;;2.8;1.9;;;;;;;-0.95;63.29004;96545.43;;;;
2022/02/09 00:41:46;;;;;;;2.8;1.9;;;;;;;-0.95;63.29004;96545.43;;;;
2022/02/09 00:43:10;;;;;;;2.8;1.9;;;;;;;-0.95;63.29004;96545.43;;;;
2022/02/09 00:44:27;;;;;;;2.7;1.7;;;;;;;-1.04;63.57031;96548.41;;;;
2022/02/09 00:58:50;;;;;;;2.7;1.7;;;;;;;-1.04;63.57031;96548.41;;;;
2022/02/09 01:02:43;;;;;;;2.8;1.8;;;;;;;-1.11;63.75781;96558.35;;;;
2022/02/09 01:41:49;;;;;;;3.400001;1.7;;;;;;;-1.26;64.57129;96547.27;;;;
2022/02/09 01:58:25;;;;;;;2.1;1.5;;;;;;;-1.24;64.94824;96548.88;;;;
2022/02/09 01:59:26;;;;;;;2.1;1.5;;;;;;;-1.24;64.94824;96548.88;;;;
2022/02/09 02:00:27;;;;;;;2.1;1.5;;;;;;;-1.24;64.94824;96548.88;;;;
2022/02/09 02:01:28;;;;;;;2.1;1.5;;;;;;;-1.24;64.94824;96548.88;;;;
2022/02/09 02:02:29;;;;;;;2.1;1.5;;;;;;;-1.24;64.94824;96548.88;;;;
2022/02/09 02:03:29;;;;;;;2.1;1.5;;;;;;;-1.24;64.94824;96548.88;;;;
2022/02/09 02:04:30;;;;;;;2.1;1.5;;;;;;;-1.24;64.94824;96548.88;;;;
2022/02/09 02:05:31;;;;;;;2.1;1.5;;;;;;;-1.24;64.94824;96548.88;;;;
2022/02/09 02:06:33;;;;;;;2.1;1.5;;;;;;;-1.24;64.94824;96548.88;;;;
2022/02/09 02:07:43;;;;;;;2.1;1.5;;;;;;;-1.24;64.94824;96548.88;;;;
2022/02/09 02:08:44;;;;;;;2.1;1.5;;;;;;;-1.24;64.94824;96548.88;;;;
2022/02/09 02:09:47;;;;;;;2.5;1.55;;;;;;;-1.2;65.03906;96539.23;;;;
2022/02/09 02:10:58;;;;;;;2.5;1.55;;;;;;;-1.2;65.03906;96539.23;;;;
2022/02/09 02:12:05;;;;;;;2.5;1.55;;;;;;;-1.2;65.03906;96539.23;;;;
2022/02/09 02:13:18;;;;;;;2.5;1.55;;;;;;;-1.2;65.03906;96539.23;;;;
2022/02/09 02:14:32;;;;;;;2.5;1.55;;;;;;;-1.2;65.03906;96539.23;;;;
2022/02/09 02:15:59;;;;;;;2.5;1.55;;;;;;;-1.2;65.03906;96539.23;;;;
2022/02/09 02:17:06;;;;;;;2.5;1.55;;;;;;;-1.2;65.03906;96539.23;;;;
2022/02/09 02:18:07;;;;;;;2.5;1.55;;;;;;;-1.2;65.03906;96539.23;;;;
2022/02/09 02:19:11;;;;;;;2.5;1.55;;;;;;;-1.2;65.03906;96539.23;;;;
2022/02/09 02:20:25;;;;;;;1.85;1.7;;;;;;;-1.11;65.17773;96546.42;;;;
2022/02/09 02:21:37;;;;;;;1.85;1.7;;;;;;;-1.11;65.17773;96546.42;;;;
2022/02/09 02:22:47;;;;;;;1.85;1.7;;;;;;;-1.11;65.17773;96546.42;;;;
2022/02/09 02:24:12;;;;;;;1.85;1.7;;;;;;;-1.11;65.17773;96546.42;;;;
2022/02/09 02:26:00;;;;;;;1.85;1.7;;;;;;;-1.11;65.17773;96546.42;;;;
2022/02/09 02:27:20;;;;;;;1.85;1.7;;;;;;;-1.11;65.17773;96546.42;;;;
2022/02/09 02:28:38;;;;;;;1.85;1.7;;;;;;;-1.11;65.17773;96546.42;;;;
2022/02/09 02:30:01;;;;;;;1.85;1.7;;;;;;;-1.11;65.17773;96546.42;;;;
2022/02/09 02:31:29;;;;;;;2;1.5;;;;;;;-0.83;65.18066;96534.59;;;;
2022/02/09 02:32:46;;;;;;;2;1.5;;;;;;;-0.83;65.18066;96534.59;;;;
2022/02/09 02:34:07;;;;;;;2;1.5;;;;;;;-0.83;65.18066;96534.59;;;;
2022/02/09 02:35:39;;;;;;;2;1.5;;;;;;;-0.83;65.18066;96534.59;;;;
2022/02/09 02:43:23;;;;;;;1.5;1.4;;;;;;;-0.57;65.20801;96530.05;;;;
2022/02/09 02:45:16;;;;;;;1.5;1.4;;;;;;;-0.57;65.20801;96530.05;;;;
2022/02/09 02:46:38;;;;;;;1.5;1.4;;;;;;;-0.57;65.20801;96530.05;;;;
2022/02/09 02:56:57;;;;;;;1.55;1.3;;;;;;;-0.42;65.42969;96520.78;;;;
2022/02/09 02:58:17;;;;;;;1.55;1.3;;;;;;;-0.42;65.42969;96520.78;;;;
2022/02/09 02:59:30;;;;;;;1.55;1.3;;;;;;;-0.42;65.42969;96520.78;;;;
2022/02/09 03:11:17;;;;;;;1.3;1.2;;;;;;;-0.29;65.81445;96496.14;;;;
2022/02/09 03:12:30;;;;;;;1.3;1.2;;;;;;;-0.29;65.81445;96496.14;;;;
2022/02/09 03:13:34;;;;;;;1.5;1.3;;;;;;;-0.27;66.14258;96491.02;;;;
2022/02/09 03:14:42;;;;;;;1.5;1.3;;;;;;;-0.27;66.14258;96491.02;;;;
2022/02/09 03:15:48;;;;;;;1.5;1.3;;;;;;;-0.27;66.14258;96491.02;;;;
2022/02/09 03:16:56;;;;;;;1.5;1.3;;;;;;;-0.27;66.14258;96491.02;;;;
2022/02/09 03:18:13;;;;;;;1.5;1.3;;;;;;;-0.27;66.14258;96491.02;;;;
2022/02/09 03:19:35;;;;;;;1.5;1.3;;;;;;;-0.27;66.14258;96491.02;;;;
2022/02/09 03:20:41;;;;;;;1.5;1.3;;;;;;;-0.27;66.14258;96491.02;;;;
2022/02/09 03:21:48;;;;;;;1.5;1.3;;;;;;;-0.27;66.14258;96491.02;;;;
2022/02/09 03:22:55;;;;;;;1.5;1.3;;;;;;;-0.27;66.14258;96491.02;;;;
2022/02/09 03:24:00;;;;;;;2.1;1.15;;;;;;;-0.39;66.375;96484.19;;;;
2022/02/09 03:25:26;;;;;;;2.1;1.15;;;;;;;-0.39;66.375;96484.19;;;;
2022/02/09 03:26:49;;;;;;;2.1;1.15;;;;;;;-0.39;66.375;96484.19;;;;
2022/02/09 03:43:56;;;;;;;2.9;1.3;;;;;;;-0.56;66.70508;96490.63;;;;
2022/02/09 03:50:43;;;;;;;1.6;1.15;;;;;;;-0.75;67.00977;96488.36;;;;
2022/02/09 03:51:54;;;;;;;1.6;1.15;;;;;;;-0.75;67.00977;96488.36;;;;
2022/02/09 03:53:46;;;;;;;1.6;1.15;;;;;;;-0.75;67.00977;96488.36;;;;
2022/02/09 03:54:55;;;;;;;1.6;1.15;;;;;;;-0.75;67.00977;96488.36;;;;
2022/02/09 03:56:12;;;;;;;3.75;1.4;;;;;;;-0.91;67.21289;96474.38;;;;
2022/02/09 03:57:23;;;;;;;3.75;1.4;;;;;;;-0.91;67.21289;96474.38;;;;
2022/02/09 03:58:24;;;;;;;3.75;1.4;;;;;;;-0.91;67.21289;96474.38;;;;
2022/02/09 03:59:24;;;;;;;3.75;1.4;;;;;;;-0.91;67.21289;96474.38;;;;
2022/02/09 04:00:26;;;;;;;3.75;1.4;;;;;;;-0.91;67.21289;96474.38;;;;
2022/02/09 04:01:30;;;;;;;3.75;1.4;;;;;;;-0.91;67.21289;96474.38;;;;
2022/02/09 04:02:31;;;;;;;3.75;1.4;;;;;;;-0.91;67.21289;96474.38;;;;
2022/02/09 04:03:31;;;;;;;3.75;1.4;;;;;;;-0.91;67.21289;96474.38;;;;
2022/02/09 04:04:32;;;;;;;3.75;1.4;;;;;;;-0.91;67.21289;96474.38;;;;
2022/02/09 04:05:32;;;;;;;3.75;1.4;;;;;;;-0.91;67.21289;96474.38;;;;
2022/02/09 04:06:35;;;;;;;1.85;1.2;;;;;;;-1.03;67.55859;96458.73;;;;
2022/02/09 04:07:36;;;;;;;1.85;1.2;;;;;;;-1.03;67.55859;96458.73;;;;
2022/02/09 04:08:44;;;;;;;1.85;1.2;;;;;;;-1.03;67.55859;96458.73;;;;
2022/02/09 04:09:48;;;;;;;1.85;1.2;;;;;;;-1.03;67.55859;96458.73;;;;
2022/02/09 04:10:59;;;;;;;1.85;1.2;;;;;;;-1.03;67.55859;96458.73;;;;
2022/02/09 04:12:07;;;;;;;1.85;1.2;;;;;;;-1.03;67.55859;96458.73;;;;
2022/02/09 04:13:16;;;;;;;1.85;1.2;;;;;;;-1.03;67.55859;96458.73;;;;
2022/02/09 04:14:26;;;;;;;1.85;1.2;;;;;;;-1.03;67.55859;96458.73;;;;
2022/02/09 04:15:41;;;;;;;1.85;1.2;;;;;;;-1.03;67.55859;96458.73;;;;
2022/02/09 04:16:54;;;;;;;1.85;1.2;;;;;;;-1.03;67.55859;96458.73;;;;
2022/02/09 04:18:08;;;;;;;1.85;1.2;;;;;;;-1.03;67.55859;96458.73;;;;
2022/02/09 04:19:19;;;;;;;1.85;1.2;;;;;;;-1.03;67.55859;96458.73;;;;
2022/02/09 04:20:37;;;;;;;1.85;1.2;;;;;;;-1.03;67.55859;96458.73;;;;
2022/02/09 04:36:00;;;;;;;1.85;1.2;;;;;;;-1.03;67.55859;96458.73;;;;
2022/02/09 04:39:48;;;;;;;1.7;1.05;;;;;;;-1.11;68.18262;96420.56;;;;
2022/02/09 04:41:17;;;;;;;1.7;1.05;;;;;;;-1.11;68.18262;96420.56;;;;
2022/02/09 04:42:37;;;;;;;1.7;1.05;;;;;;;-1.11;68.18262;96420.56;;;;
2022/02/09 04:43:52;;;;;;;1.7;1.05;;;;;;;-1.11;68.18262;96420.56;;;;
2022/02/09 04:45:19;;;;;;;1.7;1.05;;;;;;;-1.11;68.18262;96420.56;;;;
2022/02/09 04:46:47;;;;;;;1.7;1.05;;;;;;;-1.11;68.18262;96420.56;;;;
2022/02/09 04:47:55;;;;;;;1.7;1.05;;;;;;;-1.11;68.18262;96420.56;;;;
2022/02/09 04:49:35;;;;;;;1.7;1.05;;;;;;;-1.11;68.18262;96420.56;;;;
2022/02/09 04:50:40;;;;;;;1.25;1.15;;;;;;;-1.17;68.23633;96424.59;;;;
2022/02/09 04:51:58;;;;;;;1.25;1.15;;;;;;;-1.17;68.23633;96424.59;;;;
2022/02/09 04:53:17;;;;;;;1.25;1.15;;;;;;;-1.17;68.23633;96424.59;;;;
2022/02/09 04:54:27;;;;;;;1.25;1.15;;;;;;;-1.17;68.23633;96424.59;;;;
2022/02/09 04:55:40;;;;;;;1.25;1.15;;;;;;;-1.17;68.23633;96424.59;;;;
2022/02/09 04:56:45;;;;;;;1.25;1.15;;;;;;;-1.17;68.23633;96424.59;;;;
2022/02/09 04:57:49;;;;;;;1.25;1.15;;;;;;;-1.17;68.23633;96424.59;;;;
2022/02/09 04:59:03;;;;;;;1.25;1.15;;;;;;;-1.17;68.23633;96424.59;;;;
2022/02/09 05:00:30;;;;;;;1.7;1.3;;;;;;;-1.25;68.45215;96421.81;;;;
2022/02/09 05:01:57;;;;;;;1.7;1.3;;;;;;;-1.25;68.45215;96421.81;;;;
2022/02/09 05:04:18;;;;;;;1.7;1.3;;;;;;;-1.25;68.45215;96421.81;;;;
2022/02/09 05:17:41;;;;;;;1.7;1.3;;;;;;;-1.25;68.45215;96421.81;;;;
2022/02/09 05:19:23;;;;;;;2;1.3;;;;;;;-1.34;68.57227;96412.51;;;;
2022/02/09 05:25:42;;;;;;;0;0;;;;;;;0;0;0;;;;
2022/02/09 05:26:49;;;;;;;0;0;;;;;;;0;0;0;;;;
2022/02/09 05:27:53;;;;;;;0;0;;;;;;;0;0;0;;;;
2022/02/09 05:28:56;;;;;;;0;0;;;;;;;0;0;0;;;;
2022/02/09 05:29:59;;;;;;;0;0;;;;;;;0;0;0;;;;
2022/02/09 05:30:59;;;;;;;0;0;;;;;;;0;0;0;;;;
2022/02/09 05:32:00;;;;;;;0;0;;;;;;;0;0;0;;;;
2022/02/09 05:33:00;;;;;;;0;0;;;;;;;0;0;0;;;;
2022/02/09 05:34:01;;;;;;;0;0;;;;;;;0;0;0;;;;
2022/02/09 05:35:01;;;;;;;0;0;;;;;;;0;0;0;;;;
2022/02/09 05:36:02;;;;;;;0;0;;;;;;;0;0;0;;;;
2022/02/09 05:37:04;;;;;;;0;0;;;;;;;0;0;0;;;;
2022/02/09 05:38:06;;;;;;;0;0;;;;;;;0;0;0;;;;
2022/02/09 05:39:07;;;;;;;0;0;;;;;;;0;0;0;;;;
2022/02/09 05:40:07;;;;;;;0;0;;;;;;;0;0;0;;;;
2022/02/09 05:41:09;;;;;;;0;0;;;;;;;0;0;0;;;;
2022/02/09 05:42:10;;;;;;;0;0;;;;;;;0;0;0;;;;
2022/02/09 05:43:11;;;;;;;0;0;;;;;;;0;0;0;;;;
2022/02/09 05:44:14;;;;;;;0;0;;;;;;;0;0;0;;;;
2022/02/09 05:45:15;;;;;;;0;0;;;;;;;0;0;0;;;;
2022/02/09 05:47:01;;;;;;;0;0;;;;;;;0;0;0;;;;
2022/02/09 05:48:42;;;;;;;0;0;;;;;;;0;0;0;;;;
2022/02/09 05:49:47;;;;;;;0;0;;;;;;;0;0;0;;;;
2022/02/09 05:50:54;;;;;;;0;0;;;;;;;0;0;0;;;;
2022/02/09 05:52:00;;;;;;;0;0;;;;;;;0;0;0;;;;
2022/02/09 05:53:10;;;;;;;0;0;;;;;;;0;0;0;;;;
2022/02/09 05:54:25;;;;;;;0;0;;;;;;;0;0;0;;;;
2022/02/09 05:55:43;;;;;;;0;0;;;;;;;0;0;0;;;;
2022/02/09 05:56:47;;;;;;;0;0;;;;;;;0;0;0;;;;
2022/02/09 05:57:50;;;;;;;0;0;;;;;;;0;0;0;;;;
2022/02/09 05:59:03;;;;;;;0;0;;;;;;;0;0;0;;;;
2022/02/09 06:00:05;;;;;;;0;0;;;;;;;0;0;0;;;;
2022/02/09 06:01:07;;;;;;;0;0;;;;;;;0;0;0;;;;
2022/02/09 06:02:07;;;;;;;0;0;;;;;;;0;0;0;;;;
2022/02/09 06:03:07;;;;;;;0;0;;;;;;;0;0;0;;;;
2022/02/09 06:04:08;;;;;;;0;0;;;;;;;0;0;0;;;;
2022/02/09 06:05:09;;;;;;;0;0;;;;;;;0;0;0;;;;
2022/02/09 06:06:10;;;;;;;0;0;;;;;;;0;0;0;;;;
2022/02/09 06:07:13;;;;;;;0;0;;;;;;;0;0;0;;;;
2022/02/09 06:08:13;;;;;;;0;0;;;;;;;0;0;0;;;;
2022/02/09 06:09:14;;;;;;;0;0;;;;;;;0;0;0;;;;
2022/02/09 06:10:18;;;;;;;0;0;;;;;;;0;0;0;;;;
2022/02/09 06:11:25;;;;;;;0;0;;;;;;;0;0;0;;;;
2022/02/09 06:12:33;;;;;;;0;0;;;;;;;0;0;0;;;;
2022/02/09 06:13:50;;;;;;;0;0;;;;;;;0;0;0;;;;
2022/02/09 06:15:04;;;;;;;0;0;;;;;;;0;0;0;;;;
2022/02/09 06:19:36;;;;;;;0;0;;;;;;;0;0;0;;;;
2022/02/09 06:20:37;;;;;;;0;0;;;;;;;0;0;0;;;;
2022/02/09 06:21:41;;;;;;;0;0;;;;;;;0;0;0;;;;
2022/02/09 06:22:41;;;;;;;0;0;;;;;;;0;0;0;;;;
2022/02/09 06:23:42;;;;;;;0;0;;;;;;;0;0;0;;;;
2022/02/09 06:24:42;;;;;;;0;0;;;;;;;0;0;0;;;;
2022/02/09 06:25:43;;;;;;;0;0;;;;;;;0;0;0;;;;
2022/02/09 06:26:43;;;;;;;0;0;;;;;;;0;0;0;;;;
2022/02/09 06:27:44;;;;;;;0;0;;;;;;;0;0;0;;;;
2022/02/09 06:28:47;;;;;;;0;0;;;;;;;0;0;0;;;;
2022/02/09 06:29:48;;;;;;;0;0;;;;;;;0;0;0;;;;
2022/02/09 06:30:49;;;;;;;0;0;;;;;;;0;0;0;;;;
2022/02/09 06:31:50;;;;;;;0;0;;;;;;;0;0;0;;;;
2022/02/09 06:32:51;;;;;;;0;0;;;;;;;0;0;0;;;;
2022/02/09 06:33:52;;;;;;;0;0;;;;;;;0;0;0;;;;
2022/02/09 06:34:52;;;;;;;0;0;;;;;;;0;0;0;;;;
2022/02/09 06:35:54;;;;;;;0;0;;;;;;;0;0;0;;;;
2022/02/09 06:36:59;;;;;;;0;0;;;;;;;0;0;0;;;;
2022/02/09 06:38:00;;;;;;;0;0;;;;;;;0;0;0;;;;
2022/02/09 06:39:05;;;;;;;0;0;;;;;;;0;0;0;;;;
2022/02/09 06:40:06;;;;;;;0;0;;;;;;;0;0;0;;;;
2022/02/09 06:41:07;;;;;;;0;0;;;;;;;0;0;0;;;;
2022/02/09 06:42:08;;;;;;;0;0;;;;;;;0;0;0;;;;
2022/02/09 06:43:09;;;;;;;0;0;;;;;;;0;0;0;;;;
2022/02/09 06:44:11;;;;;;;0;0;;;;;;;0;0;0;;;;
2022/02/09 06:45:17;;;;;;;0;0;;;;;;;0;0;0;;;;
2022/02/09 06:46:17;;;;;;;0;0;;;;;;;0;0;0;;;;
2022/02/09 06:47:22;;;;;;;0;0;;;;;;;0;0;0;;;;
2022/02/09 06:48:23;;;;;;;0;0;;;;;;;0;0;0;;;;
2022/02/09 06:49:24;;;;;;;0;0;;;;;;;0;0;0;;;;
2022/02/09 06:50:32;;;;;;;0;0;;;;;;;0;0;0;;;;
2022/02/09 06:51:34;;;;;;;0;0;;;;;;;0;0;0;;;;
2022/02/09 06:52:39;;;;;;;0;0;;;;;;;0;0;0;;;;
2022/02/09 06:53:46;;;;;;;0;0;;;;;;;0;0;0;;;;
2022/02/09 06:55:06;;;;;;;0;0;;;;;;;0;0;0;;;;
2022/02/09 06:56:07;;;;;;;0;0;;;;;;;0;0;0;;;;
2022/02/09 06:57:13;;;;;;;0;0;;;;;;;0;0;0;;;;
2022/02/09 06:58:19;;;;;;;0;0;;;;;;;0;0;0;;;;
2022/02/09 06:59:28;;;;;;;0;0;;;;;;;0;0;0;;;;
2022/02/09 07:00:29;;;;;;;0;0;;;;;;;0;0;0;;;;
2022/02/09 07:01:31;;;;;;;0;0;;;;;;;0;0;0;;;;
2022/02/09 07:02:31;;;;;;;0;0;;;;;;;0;0;0;;;;
2022/02/09 07:03:32;;;;;;;0;0;;;;;;;0;0;0;;;;
2022/02/09 07:04:33;;;;;;;0;0;;;;;;;0;0;0;;;;
2022/02/09 07:05:35;;;;;;;0;0;;;;;;;0;0;0;;;;
2022/02/09 07:06:35;;;;;;;0;0;;;;;;;0;0;0;;;;
2022/02/09 07:07:36;;;;;;;0;0;;;;;;;0;0;0;;;;
2022/02/09 07:08:37;;;;;;;0;0;;;;;;;0;0;0;;;;
2022/02/09 07:09:38;;;;;;;0;0;;;;;;;0;0;0;;;;
2022/02/09 07:10:38;;;;;;;0;0;;;;;;;0;0;0;;;;
2022/02/09 07:11:39;;;;;;;0;0;;;;;;;0;0;0;;;;
2022/02/09 07:12:41;;;;;;;0;0;;;;;;;0;0;0;;;;
2022/02/09 07:13:42;;;;;;;0;0;;;;;;;0;0;0;;;;
2022/02/09 07:14:42;;;;;;;0;0;;;;;;;0;0;0;;;;
2022/02/09 07:15:47;;;;;;;0;0;;;;;;;0;0;0;;;;
2022/02/09 07:16:47;;;;;;;0;0;;;;;;;0;0;0;;;;
2022/02/09 07:17:48;;;;;;;0;0;;;;;;;0;0;0;;;;
2022/02/09 07:18:50;;;;;;;0;0;;;;;;;0;0;0;;;;
2022/02/09 07:19:55;;;;;;;0;0;;;;;;;0;0;0;;;;
2022/02/09 07:21:00;;;;;;;0;0;;;;;;;0;0;0;;;;
2022/02/09 07:22:00;;;;;;;0;0;;;;;;;0;0;0;;;;
2022/02/09 07:23:02;;;;;;;0;0;;;;;;;0;0;0;;;;
2022/02/09 07:24:03;;;;;;;0;0;;;;;;;0;0;0;;;;
2022/02/09 07:25:09;;;;;;;0;0;;;;;;;0;0;0;;;;
2022/02/09 07:26:12;;;;;;;0;0;;;;;;;0;0;0;;;;
2022/02/09 07:27:39;;;;;;;0;0;;;;;;;0;0;0;;;;
2022/02/09 07:28:40;;;;;;;0;0;;;;;;;0;0;0;;;;
2022/02/09 07:29:41;;;;;;;0;0;;;;;;;0;0;0;;;;
2022/02/09 07:30:43;;;;;;;0;0;;;;;;;0;0;0;;;;
2022/02/09 07:31:44;;;;;;;0;0;;;;;;;0;0;0;;;;
2022/02/09 07:32:45;;;;;;;0;0;;;;;;;0;0;0;;;;
2022/02/09 07:33:47;;;;;;;0;0;;;;;;;0;0;0;;;;
2022/02/09 07:34:48;;;;;;;0;0;;;;;;;0;0;0;;;;
2022/02/09 07:35:48;;;;;;;0;0;;;;;;;0;0;0;;;;
2022/02/09 07:36:49;;;;;;;0;0;;;;;;;0;0;0;;;;
2022/02/09 07:37:49;;;;;;;0;0;;;;;;;0;0;0;;;;
2022/02/09 07:38:50;;;;;;;0;0;;;;;;;0;0;0;;;;
2022/02/09 07:39:50;;;;;;;0;0;;;;;;;0;0;0;;;;
2022/02/09 07:40:54;;;;;;;0;0;;;;;;;0;0;0;;;;
2022/02/09 07:41:56;;;;;;;0;0;;;;;;;0;0;0;;;;
2022/02/09 07:43:00;;;;;;;0;0;;;;;;;0;0;0;;;;
2022/02/09 07:44:14;;;;;;;0;0;;;;;;;0;0;0;;;;
2022/02/09 07:46:04;;;;;;;0;0;;;;;;;0;0;0;;;;
2022/02/09 07:47:22;;;;;;;0;0;;;;;;;0;0;0;;;;
2022/02/09 07:48:39;;;;;;;0;0;;;;;;;0;0;0;;;;
2022/02/09 07:49:52;;;;;;;0;0;;;;;;;0;0;0;;;;
2022/02/09 07:51:14;;;;;;;0;0;;;;;;;0;0;0;;;;
2022/02/09 07:52:22;;;;;;;1.25;1.1;;;;;;;-0.2;68.60156;96401.93;;;;
2022/02/09 07:53:25;;;;;;;1.25;1.1;;;;;;;-0.2;68.60156;96401.93;;;;
2022/02/09 07:54:26;;;;;;;1.25;1.1;;;;;;;-0.2;68.60156;96401.93;;;;
2022/02/09 07:55:27;;;;;;;1.25;1.1;;;;;;;-0.2;68.60156;96401.93;;;;
2022/02/09 07:56:27;;;;;;;1.25;1.1;;;;;;;-0.2;68.60156;96401.93;;;;
2022/02/09 07:57:31;;;;;;;1.25;1.1;;;;;;;-0.2;68.60156;96401.93;;;;
2022/02/09 07:58:31;;;;;;;1.25;1.1;;;;;;;-0.2;68.60156;96401.93;;;;
2022/02/09 07:59:31;;;;;;;1.25;1.1;;;;;;;-0.2;68.60156;96401.93;;;;
2022/02/09 08:00:32;;;;;;;1.25;1.1;;;;;;;-0.2;68.60156;96401.93;;;;
2022/02/09 08:01:33;;;;;;;1.25;1.1;;;;;;;-0.2;68.60156;96401.93;;;;
2022/02/09 08:02:34;;;;;;;1.4;1.1;;;;;;;3.51;63.35254;96379.94;;;;
2022/02/09 08:03:36;;;;;;;1.4;1.1;;;;;;;3.51;63.35254;96379.94;;;;
2022/02/09 08:04:36;;;;;;;1.4;1.1;;;;;;;3.51;63.35254;96379.94;;;;
2022/02/09 08:05:36;;;;;;;1.4;1.1;;;;;;;3.51;63.35254;96379.94;;;;
2022/02/09 08:06:37;;;;;;;1.4;1.1;;;;;;;3.51;63.35254;96379.94;;;;
2022/02/09 08:07:38;;;;;;;1.4;1.1;;;;;;;3.51;63.35254;96379.94;;;;
2022/02/09 08:08:41;;;;;;;1.4;1.1;;;;;;;3.51;63.35254;96379.94;;;;
2022/02/09 08:09:44;;;;;;;1.4;1.1;;;;;;;3.51;63.35254;96379.94;;;;
2022/02/09 08:10:48;;;;;;;1.4;1.1;;;;;;;3.51;63.35254;96379.94;;;;
2022/02/09 08:11:56;;;;;;;1.4;1.1;;;;;;;3.51;63.35254;96379.94;;;;
2022/02/09 08:20:27;;;;;;;1.9;1.2;;;;;;;7.08;59.60742;96388.12;;;;
2022/02/09 08:23:14;;;;;;;1.9;1.2;;;;;;;7.08;59.60742;96388.12;;;;
2022/02/09 08:25:11;;;;;;;1.45;1.25;;;;;;;11.66;55.29102;96372.35;;;;
2022/02/09 08:26:45;;;;;;;1.45;1.25;;;;;;;11.66;55.29102;96372.35;;;;
2022/02/09 08:27:57;;;;;;;1.45;1.25;;;;;;;11.66;55.29102;96372.35;;;;
2022/02/09 08:29:05;;;;;;;1.45;1.25;;;;;;;11.66;55.29102;96372.35;;;;
2022/02/09 08:30:19;;;;;;;1.45;1.25;;;;;;;11.66;55.29102;96372.35;;;;
2022/02/09 08:31:46;;;;;;;1.45;1.25;;;;;;;11.66;55.29102;96372.35;;;;
2022/02/09 08:32:53;;;;;;;1.45;1.25;;;;;;;11.66;55.29102;96372.35;;;;
2022/02/09 08:33:54;;;;;;;1.7;1.5;;;;;;;17.25;50.00586;96378.35;;;;
2022/02/09 08:34:55;;;;;;;1.7;1.5;;;;;;;17.25;50.00586;96378.35;;;;
2022/02/09 08:35:57;;;;;;;1.7;1.5;;;;;;;17.25;50.00586;96378.35;;;;
2022/02/09 08:36:57;;;;;;;1.7;1.5;;;;;;;17.25;50.00586;96378.35;;;;
2022/02/09 08:37:59;;;;;;;1.7;1.5;;;;;;;17.25;50.00586;96378.35;;;;
2022/02/09 08:39:00;;;;;;;1.7;1.5;;;;;;;17.25;50.00586;96378.35;;;;
2022/02/09 08:40:01;;;;;;;1.7;1.5;;;;;;;17.25;50.00586;96378.35;;;;
2022/02/09 08:41:05;;;;;;;1.7;1.5;;;;;;;17.25;50.00586;96378.35;;;;
2022/02/09 08:42:05;;;;;;;1.7;1.5;;;;;;;17.25;50.00586;96378.35;;;;
2022/02/09 08:43:08;;;;;;;1.7;1.5;;;;;;;17.25;50.00586;96378.35;;;;
2022/02/09 08:44:09;;;;;;;1.7;1.5;;;;;;;17.25;50.00586;96378.35;;;;
2022/02/09 08:45:10;;;;;;;1.8;1.5;;;;;;;21.26;47.25488;96382.01;;;;
2022/02/09 08:46:11;;;;;;;1.8;1.5;;;;;;;21.26;47.25488;96382.01;;;;
2022/02/09 08:47:12;;;;;;;1.8;1.5;;;;;;;21.26;47.25488;96382.01;;;;
2022/02/09 08:48:12;;;;;;;1.8;1.5;;;;;;;21.26;47.25488;96382.01;;;;
2022/02/09 08:49:13;;;;;;;1.8;1.5;;;;;;;21.26;47.25488;96382.01;;;;
2022/02/09 08:50:13;;;;;;;1.8;1.5;;;;;;;21.26;47.25488;96382.01;;;;
2022/02/09 08:51:15;;;;;;;1.8;1.5;;;;;;;21.26;47.25488;96382.01;;;;
2022/02/09 08:52:16;;;;;;;1.8;1.5;;;;;;;21.26;47.25488;96382.01;;;;
2022/02/09 08:53:16;;;;;;;1.8;1.5;;;;;;;21.26;47.25488;96382.01;;;;
2022/02/09 08:54:19;;;;;;;1.8;1.5;;;;;;;21.26;47.25488;96382.01;;;;
2022/02/09 08:55:20;;;;;;;2.1;1.5;;;;;;;21.33;48.24609;96376.23;;;;
2022/02/09 08:56:20;;;;;;;2.1;1.5;;;;;;;21.33;48.24609;96376.23;;;;
2022/02/09 08:57:24;;;;;;;2.1;1.5;;;;;;;21.33;48.24609;96376.23;;;;
2022/02/09 08:58:24;;;;;;;2.1;1.5;;;;;;;21.33;48.24609;96376.23;;;;
2022/02/09 08:59:27;;;;;;;2.1;1.5;;;;;;;21.33;48.24609;96376.23;;;;
2022/02/09 09:00:32;;;;;;;2.1;1.5;;;;;;;21.33;48.24609;96376.23;;;;
2022/02/09 09:01:36;;;;;;;2.1;1.5;;;;;;;21.33;48.24609;96376.23;;;;
2022/02/09 09:02:42;;;;;;;2.1;1.5;;;;;;;21.33;48.24609;96376.23;;;;
2022/02/09 09:03:48;;;;;;;2.1;1.5;;;;;;;21.33;48.24609;96376.23;;;;
2022/02/09 09:04:53;;;;;;;2.1;1.5;;;;;;;21.33;48.24609;96376.23;;;;
2022/02/09 09:05:58;;;;;;;2.6;1.7;;;;;;;19.85;49.7373;96374.95;;;;
2022/02/09 09:07:04;;;;;;;2.6;1.7;;;;;;;19.85;49.7373;96374.95;;;;
2022/02/09 09:08:18;;;;;;;2.6;1.7;;;;;;;19.85;49.7373;96374.95;;;;
2022/02/09 09:09:26;;;;;;;2.6;1.7;;;;;;;19.85;49.7373;96374.95;;;;
2022/02/09 09:10:33;;;;;;;2.6;1.7;;;;;;;19.85;49.7373;96374.95;;;;
2022/02/09 09:14:46;;;;;;;2.6;1.7;;;;;;;19.85;49.7373;96374.95;;;;
2022/02/09 09:17:06;;;;;;;2.6;1.7;;;;;;;19.85;49.7373;96374.95;;;;
2022/02/09 09:18:43;;;;;;;2.65;1.6;;;;;;;21.44;46.27734;96377.45;;;;
2022/02/09 09:31:01;;;;;;;2.65;1.6;;;;;;;21.44;46.27734;96377.45;;;;
2022/02/09 09:40:18;;;;;;;1.7;1.6;;;;;;;25.3;41.58789;96376.76;;;;
2022/02/09 10:02:07;;;;;;;1.85;1.6;;;;;;;24.21;41.39844;96362.87;;;;
2022/02/09 10:03:37;;;;;;;1.85;1.6;;;;;;;24.21;41.39844;96362.87;;;;
2022/02/09 10:05:02;;;;;;;1.85;1.6;;;;;;;24.21;41.39844;96362.87;;;;
2022/02/09 10:32:50;;;;;;;2;1.6;;;;;;;31.4;33.70508;96371.06;;;;
2022/02/09 10:34:02;;;;;;;2;1.6;;;;;;;31.4;33.70508;96371.06;;;;
2022/02/09 10:35:05;;;;;;;2;1.6;;;;;;;31.4;33.70508;96371.06;;;;
2022/02/09 10:36:13;;;;;;;2;1.6;;;;;;;31.4;33.70508;96371.06;;;;
2022/02/09 10:37:14;;;;;;;2;1.6;;;;;;;31.4;33.70508;96371.06;;;;
2022/02/09 10:38:27;;;;;;;2;1.6;;;;;;;31.4;33.70508;96371.06;;;;
2022/02/09 10:39:33;;;;;;;2;1.6;;;;;;;31.4;33.70508;96371.06;;;;
2022/02/09 10:40:47;;;;;;;2;1.6;;;;;;;31.4;33.70508;96371.06;;;;
2022/02/09 10:41:48;;;;;;;2;1.6;;;;;;;31.4;33.70508;96371.06;;;;
2022/02/09 10:42:58;;;;;;;1.6;1.5;;;;;;;32.94;32.20117;96351.11;;;;
2022/02/09 10:43:58;;;;;;;1.6;1.5;;;;;;;32.94;32.20117;96351.11;;;;
2022/02/09 10:45:07;;;;;;;1.6;1.5;;;;;;;32.94;32.20117;96351.11;;;;
2022/02/09 10:46:23;;;;;;;1.6;1.5;;;;;;;32.94;32.20117;96351.11;;;;
2022/02/09 10:47:23;;;;;;;1.6;1.5;;;;;;;32.94;32.20117;96351.11;;;;
2022/02/09 10:48:30;;;;;;;1.6;1.5;;;;;;;32.94;32.20117;96351.11;;;;
2022/02/09 10:49:32;;;;;;;1.6;1.5;;;;;;;32.94;32.20117;96351.11;;;;
2022/02/09 10:50:35;;;;;;;1.6;1.5;;;;;;;32.94;32.20117;96351.11;;;;
2022/02/09 10:51:41;;;;;;;1.6;1.5;;;;;;;32.94;32.20117;96351.11;;;;
2022/02/09 10:52:42;;;;;;;1.6;1.5;;;;;;;32.94;32.20117;96351.11;;;;
2022/02/09 10:53:45;;;;;;;2.55;1.6;;;;;;;33.86;30.35938;96336.24;;;;
2022/02/09 10:55:04;;;;;;;2.55;1.6;;;;;;;33.86;30.35938;96336.24;;;;
2022/02/09 10:56:24;;;;;;;2.55;1.6;;;;;;;33.86;30.35938;96336.24;;;;
2022/02/09 10:57:25;;;;;;;2.55;1.6;;;;;;;33.86;30.35938;96336.24;;;;
2022/02/09 10:58:28;;;;;;;2.55;1.6;;;;;;;33.86;30.35938;96336.24;;;;
2022/02/09 10:59:29;;;;;;;2.55;1.6;;;;;;;33.86;30.35938;96336.24;;;;
2022/02/09 11:00:31;;;;;;;2.55;1.6;;;;;;;33.86;30.35938;96336.24;;;;
2022/02/09 11:01:33;;;;;;;2.55;1.6;;;;;;;33.86;30.35938;96336.24;;;;
2022/02/09 11:02:33;;;;;;;2.55;1.6;;;;;;;33.86;30.35938;96336.24;;;;
2022/02/09 11:03:34;;;;;;;1.7;1.6;;;;;;;34.17;29.53418;96340.11;;;;
2022/02/09 11:04:35;;;;;;;1.7;1.6;;;;;;;34.17;29.53418;96340.11;;;;
2022/02/09 11:05:37;;;;;;;1.7;1.6;;;;;;;34.17;29.53418;96340.11;;;;
2022/02/09 11:06:37;;;;;;;1.7;1.6;;;;;;;34.17;29.53418;96340.11;;;;
2022/02/09 11:07:39;;;;;;;1.7;1.6;;;;;;;34.17;29.53418;96340.11;;;;
2022/02/09 11:08:40;;;;;;;1.7;1.6;;;;;;;34.17;29.53418;96340.11;;;;
2022/02/09 11:09:41;;;;;;;1.7;1.6;;;;;;;34.17;29.53418;96340.11;;;;
2022/02/09 11:10:42;;;;;;;1.7;1.6;;;;;;;34.17;29.53418;96340.11;;;;
2022/02/09 11:11:43;;;;;;;1.7;1.6;;;;;;;34.17;29.53418;96340.11;;;;
2022/02/09 11:12:45;;;;;;;1.7;1.6;;;;;;;34.17;29.53418;96340.11;;;;
2022/02/09 11:13:46;;;;;;;1.7;1.6;;;;;;;34.17;29.53418;96340.11;;;;
2022/02/09 11:14:47;;;;;;;1.7;1.6;;;;;;;33.95;28.59375;96332.72;;;;
2022/02/09 11:15:48;;;;;;;1.7;1.6;;;;;;;33.95;28.59375;96332.72;;;;
2022/02/09 11:16:51;;;;;;;1.7;1.6;;;;;;;33.95;28.59375;96332.72;;;;
2022/02/09 11:17:54;;;;;;;1.7;1.6;;;;;;;33.95;28.59375;96332.72;;;;
2022/02/09 11:18:57;;;;;;;1.7;1.6;;;;;;;33.95;28.59375;96332.72;;;;
2022/02/09 11:19:58;;;;;;;1.7;1.6;;;;;;;33.95;28.59375;96332.72;;;;
2022/02/09 11:20:59;;;;;;;1.7;1.6;;;;;;;33.95;28.59375;96332.72;;;;
2022/02/09 11:22:10;;;;;;;1.7;1.6;;;;;;;33.95;28.59375;96332.72;;;;
2022/02/09 11:23:12;;;;;;;1.7;1.6;;;;;;;33.95;28.59375;96332.72;;;;
2022/02/09 11:24:14;;;;;;;1.7;1.6;;;;;;;33.95;28.59375;96332.72;;;;
2022/02/09 11:25:25;;;;;;;1.9;1.8;;;;;;;33.05;28.56055;96327.86;;;;
2022/02/09 11:26:28;;;;;;;1.9;1.8;;;;;;;33.05;28.56055;96327.86;;;;